Red Deer Regional Airport
CYQF : now visible

Airfield :











YOU CAN JOIN US ON...

 
LOGIN :

Register | Disclaimer

   EN    FR    IT 

 









Legend :    VFR   Marginal VFR   IFR   Intensive IFR   Very Intensive IFR
Visi :
Ceiling :
>= 8 km
>= 3000ft
5 to 8 km
1000 to 3000 ft
1500m to 5 km
500 to 1000 ft
800 to 1500m
200 to 500 ft
< 800m
< 200 ft
Symbols :   Thunderstorms  Fog  Heavy snow  Heavy precipitations  Wind > 20 kt






- Airport Elevation : 2968 ft
- IATA code : YQF


CYQF - Red Deer Regional

CURRENT METAR :
  • 281800Z 02006KT 12SM BKN014 OVC035 M05/M09 A2981 RMK SC7SC1 SLP138

EXPIRED METARs :
  • 281700Z 02013KT 12SM OVC012 M06/M08 A2980 RMK SC8 SLP134
  • 281600Z 02012KT 12SM OVC012 M05/M07 A2979 RMK SC8 SLP131

TAF TAF CYQF
Valid from the 28 at 18:00 until the 29 at 06:00 UTC


281738Z 2818/2906 02012KT P6SM OVC012
TEMPO 2818/2905 OVC008
BECMG 2820/2822 12010KT
FM290500 22010KT P6SM SCT012 BKN200 RMK NXT FCST BY 290000Z



MET'MAP, your aeronautical weather chart ! - Copyright ORBIFLY December 2007 - Disclaimer

ORBIFLY MET'MAP TEAM :

Programming & Development : Alexandra Zaïnal
Concept & original design : Baudouin d'Aumeries
Assistance for programming : Marc-Olivier Méhu
Technical & hardware support : Manuel Goepfert

Contact : metmap@orbifly.com




SOURCES & CREDITS :

   NOAA       Earth
Advisory